Hauptseite
METAR-TAF:

METAR-TAF

Flughäfen :

Flughafen Longyearbyen

Longyearbyen, Norwegen

Breite: 78-15N, Länge: 015-28E, Höhe: 2 m

Beobachtung

Neuester Wetterbericht von vor 29 Minuten, um 19:50 UTC
Wind 14 kt aus Ost/Südost
Temperatur -18°C
Luftfeuchtigkeit 65%
Luftdruck 1000 hPa
Sichtweite 10 km oder mehr
keine Wolken unter 1500 m und keine Kumulonimbus oder Gewitterwolken

METAR: ENSB 071950Z 12014KT CAVOK M18/M23 Q1000 RMK WIND 1400FT 05012KT

Zeit: 21:19 (20:19 UTC)

Prognose

Gültige Prognose vom 07 um 18 UTC bis 08 um 18 UTC
Wind 12 kt aus Ost/Südost
Sichtweite 10 km oder mehr
Leicht bewölkt in der Höhe von 6000 ft

TAF: ENSB 0718/0818 12012KT 9999 FEW060

Wetterbeobachtungen und Prognosen von mehr als 4000 Flughäfen (METAR und TAF Bericht).

Die verfügbaren Stationen werden durch gelbe und rote Markierungen auf der Karte dargestellt.

Führen Sie die Maus auf sie, um den Namen der Station zu sehen.

Darauf klicken, um die Beobachtung von Wetterbeobachtungen und Prognosen zu sehen.

Um die Karte zu ändern : klicken Sie auf den grünen Tasten mit einem schwarzen Kreuz Zum Vergrößern, auf den grünen Button mit einem Gedankenstrich zu verkleinern, oder auf die grünen Pfeile für benachbarte Karten.


METAR-TAF: